sensor_id;sensor_type;location;lat;lon;timestamp;P1;durP1;ratioP1;P2;durP2;ratioP2
53269;SDS011;39159;45.634;9.420;2023-07-30T00:00:39;4.40;;;2.42;;
53269;SDS011;39159;45.634;9.420;2023-07-30T00:03:04;4.82;;;3.17;;
53269;SDS011;39159;45.634;9.420;2023-07-30T00:05:30;4.47;;;2.70;;
53269;SDS011;39159;45.634;9.420;2023-07-30T00:07:56;4.47;;;3.22;;
53269;SDS011;39159;45.634;9.420;2023-07-30T00:10:21;7.32;;;3.28;;
53269;SDS011;39159;45.634;9.420;2023-07-30T00:12:47;4.88;;;2.85;;
53269;SDS011;39159;45.634;9.420;2023-07-30T00:15:12;4.38;;;3.17;;
53269;SDS011;39159;45.634;9.420;2023-07-30T00:17:38;7.13;;;3.03;;
53269;SDS011;39159;45.634;9.420;2023-07-30T00:20:04;5.90;;;3.35;;
53269;SDS011;39159;45.634;9.420;2023-07-30T00:22:31;4.07;;;3.28;;
53269;SDS011;39159;45.634;9.420;2023-07-30T00:24:57;6.97;;;3.17;;
53269;SDS011;39159;45.634;9.420;2023-07-30T00:27:22;6.32;;;3.33;;
53269;SDS011;39159;45.634;9.420;2023-07-30T00:29:47;4.93;;;3.95;;
53269;SDS011;39159;45.634;9.420;2023-07-30T00:32:13;4.57;;;3.58;;
53269;SDS011;39159;45.634;9.420;2023-07-30T00:34:40;4.63;;;3.65;;
53269;SDS011;39159;45.634;9.420;2023-07-30T00:37:06;5.05;;;3.85;;
53269;SDS011;39159;45.634;9.420;2023-07-30T00:39:31;5.20;;;3.47;;
53269;SDS011;39159;45.634;9.420;2023-07-30T00:41:57;6.78;;;4.15;;
53269;SDS011;39159;45.634;9.420;2023-07-30T00:44:22;9.15;;;4.00;;
53269;SDS011;39159;45.634;9.420;2023-07-30T00:46:48;6.28;;;4.10;;
53269;SDS011;39159;45.634;9.420;2023-07-30T00:49:14;7.30;;;4.53;;
53269;SDS011;39159;45.634;9.420;2023-07-30T00:51:39;7.95;;;4.60;;
53269;SDS011;39159;45.634;9.420;2023-07-30T00:54:06;8.27;;;5.03;;
53269;SDS011;39159;45.634;9.420;2023-07-30T00:56:32;5.45;;;4.60;;
53269;SDS011;39159;45.634;9.420;2023-07-30T00:58:57;8.98;;;4.82;;
53269;SDS011;39159;45.634;9.420;2023-07-30T01:01:23;5.90;;;4.43;;
53269;SDS011;39159;45.634;9.420;2023-07-30T01:03:49;7.15;;;4.80;;
53269;SDS011;39159;45.634;9.420;2023-07-30T01:06:15;7.45;;;4.45;;
53269;SDS011;39159;45.634;9.420;2023-07-30T01:08:41;6.00;;;4.45;;
53269;SDS011;39159;45.634;9.420;2023-07-30T01:11:06;9.32;;;5.32;;
53269;SDS011;39159;45.634;9.420;2023-07-30T01:13:33;7.50;;;5.32;;
53269;SDS011;39159;45.634;9.420;2023-07-30T01:16:00;8.00;;;5.38;;
53269;SDS011;39159;45.634;9.420;2023-07-30T01:18:26;6.50;;;4.93;;
53269;SDS011;39159;45.634;9.420;2023-07-30T01:20:57;6.65;;;4.93;;
53269;SDS011;39159;45.634;9.420;2023-07-30T01:23:23;8.32;;;5.53;;
53269;SDS011;39159;45.634;9.420;2023-07-30T01:25:49;8.40;;;5.18;;
53269;SDS011;39159;45.634;9.420;2023-07-30T01:28:43;8.13;;;6.18;;
53269;SDS011;39159;45.634;9.420;2023-07-30T01:31:16;7.97;;;6.82;;
53269;SDS011;39159;45.634;9.420;2023-07-30T01:33:46;10.77;;;7.43;;
53269;SDS011;39159;45.634;9.420;2023-07-30T01:36:14;8.73;;;7.00;;
53269;SDS011;39159;45.634;9.420;2023-07-30T01:38:41;8.77;;;6.70;;
53269;SDS011;39159;45.634;9.420;2023-07-30T01:41:08;11.27;;;7.38;;
53269;SDS011;39159;45.634;9.420;2023-07-30T01:43:34;9.50;;;7.70;;
53269;SDS011;39159;45.634;9.420;2023-07-30T01:45:59;10.55;;;7.47;;
53269;SDS011;39159;45.634;9.420;2023-07-30T01:48:24;11.20;;;7.65;;
53269;SDS011;39159;45.634;9.420;2023-07-30T01:50:50;11.85;;;7.10;;
53269;SDS011;39159;45.634;9.420;2023-07-30T01:53:15;8.98;;;7.35;;
53269;SDS011;39159;45.634;9.420;2023-07-30T01:55:41;9.23;;;7.18;;
53269;SDS011;39159;45.634;9.420;2023-07-30T01:58:11;11.18;;;7.82;;
53269;SDS011;39159;45.634;9.420;2023-07-30T02:00:39;9.93;;;7.22;;
53269;SDS011;39159;45.634;9.420;2023-07-30T02:03:05;10.02;;;7.40;;
53269;SDS011;39159;45.634;9.420;2023-07-30T02:05:30;7.93;;;6.90;;
53269;SDS011;39159;45.634;9.420;2023-07-30T02:07:57;9.70;;;6.10;;
53269;SDS011;39159;45.634;9.420;2023-07-30T02:10:23;7.30;;;5.90;;
53269;SDS011;39159;45.634;9.420;2023-07-30T02:12:50;7.72;;;6.00;;
53269;SDS011;39159;45.634;9.420;2023-07-30T02:15:15;9.50;;;6.93;;
53269;SDS011;39159;45.634;9.420;2023-07-30T02:17:40;7.97;;;6.32;;
53269;SDS011;39159;45.634;9.420;2023-07-30T02:20:06;7.70;;;6.88;;
53269;SDS011;39159;45.634;9.420;2023-07-30T02:22:32;7.18;;;5.60;;
53269;SDS011;39159;45.634;9.420;2023-07-30T02:24:58;7.05;;;5.47;;
53269;SDS011;39159;45.634;9.420;2023-07-30T02:27:23;5.70;;;4.15;;
53269;SDS011;39159;45.634;9.420;2023-07-30T02:29:48;7.00;;;5.70;;
53269;SDS011;39159;45.634;9.420;2023-07-30T02:32:14;6.13;;;4.80;;
53269;SDS011;39159;45.634;9.420;2023-07-30T02:34:41;7.10;;;5.40;;
53269;SDS011;39159;45.634;9.420;2023-07-30T02:37:07;5.78;;;5.18;;
53269;SDS011;39159;45.634;9.420;2023-07-30T02:39:32;8.60;;;5.28;;
53269;SDS011;39159;45.634;9.420;2023-07-30T02:41:57;7.57;;;5.53;;
53269;SDS011;39159;45.634;9.420;2023-07-30T02:44:23;8.80;;;5.57;;
53269;SDS011;39159;45.634;9.420;2023-07-30T02:46:48;6.75;;;5.70;;
53269;SDS011;39159;45.634;9.420;2023-07-30T02:49:14;9.40;;;5.80;;
53269;SDS011;39159;45.634;9.420;2023-07-30T02:51:39;7.72;;;6.13;;
53269;SDS011;39159;45.634;9.420;2023-07-30T02:54:05;10.50;;;6.38;;
53269;SDS011;39159;45.634;9.420;2023-07-30T02:56:32;10.13;;;6.70;;
53269;SDS011;39159;45.634;9.420;2023-07-30T02:58:58;9.50;;;6.03;;
53269;SDS011;39159;45.634;9.420;2023-07-30T03:01:24;12.88;;;6.93;;
53269;SDS011;39159;45.634;9.420;2023-07-30T03:03:49;9.43;;;7.10;;
53269;SDS011;39159;45.634;9.420;2023-07-30T03:06:15;12.63;;;7.13;;
53269;SDS011;39159;45.634;9.420;2023-07-30T03:08:42;9.38;;;6.80;;
53269;SDS011;39159;45.634;9.420;2023-07-30T03:11:08;8.48;;;7.05;;
53269;SDS011;39159;45.634;9.420;2023-07-30T03:13:33;8.95;;;7.50;;
53269;SDS011;39159;45.634;9.420;2023-07-30T03:15:58;9.80;;;7.57;;
53269;SDS011;39159;45.634;9.420;2023-07-30T03:18:24;10.18;;;7.70;;
53269;SDS011;39159;45.634;9.420;2023-07-30T03:20:49;9.73;;;7.28;;
53269;SDS011;39159;45.634;9.420;2023-07-30T03:23:15;9.90;;;8.10;;
53269;SDS011;39159;45.634;9.420;2023-07-30T03:25:40;9.27;;;7.50;;
53269;SDS011;39159;45.634;9.420;2023-07-30T03:28:06;10.15;;;7.32;;
53269;SDS011;39159;45.634;9.420;2023-07-30T03:30:31;8.40;;;7.18;;
53269;SDS011;39159;45.634;9.420;2023-07-30T03:32:56;8.25;;;7.20;;
53269;SDS011;39159;45.634;9.420;2023-07-30T03:35:22;11.25;;;7.97;;
53269;SDS011;39159;45.634;9.420;2023-07-30T03:37:47;11.48;;;7.35;;
53269;SDS011;39159;45.634;9.420;2023-07-30T03:40:13;9.98;;;7.47;;
53269;SDS011;39159;45.634;9.420;2023-07-30T03:42:38;9.27;;;7.95;;
53269;SDS011;39159;45.634;9.420;2023-07-30T03:45:04;9.68;;;7.35;;
53269;SDS011;39159;45.634;9.420;2023-07-30T03:47:30;10.20;;;6.78;;
53269;SDS011;39159;45.634;9.420;2023-07-30T03:49:55;10.35;;;7.00;;
53269;SDS011;39159;45.634;9.420;2023-07-30T03:52:20;10.00;;;6.70;;
53269;SDS011;39159;45.634;9.420;2023-07-30T03:54:46;7.70;;;5.45;;
53269;SDS011;39159;45.634;9.420;2023-07-30T03:57:11;6.97;;;5.47;;
53269;SDS011;39159;45.634;9.420;2023-07-30T03:59:37;8.02;;;5.60;;
53269;SDS011;39159;45.634;9.420;2023-07-30T04:02:02;8.15;;;5.82;;
53269;SDS011;39159;45.634;9.420;2023-07-30T04:04:29;7.70;;;5.85;;
53269;SDS011;39159;45.634;9.420;2023-07-30T04:06:54;9.70;;;6.15;;
53269;SDS011;39159;45.634;9.420;2023-07-30T04:09:20;6.93;;;5.60;;
53269;SDS011;39159;45.634;9.420;2023-07-30T04:11:45;9.70;;;5.68;;
53269;SDS011;39159;45.634;9.420;2023-07-30T04:14:11;8.77;;;5.57;;
53269;SDS011;39159;45.634;9.420;2023-07-30T04:16:36;6.22;;;5.38;;
53269;SDS011;39159;45.634;9.420;2023-07-30T04:19:02;8.82;;;6.03;;
53269;SDS011;39159;45.634;9.420;2023-07-30T04:21:27;9.75;;;6.32;;
53269;SDS011;39159;45.634;9.420;2023-07-30T04:23:53;9.10;;;5.47;;
53269;SDS011;39159;45.634;9.420;2023-07-30T04:26:18;7.53;;;5.93;;
53269;SDS011;39159;45.634;9.420;2023-07-30T04:28:44;8.20;;;5.57;;
53269;SDS011;39159;45.634;9.420;2023-07-30T04:31:09;7.47;;;6.05;;
53269;SDS011;39159;45.634;9.420;2023-07-30T04:33:35;9.20;;;6.18;;
53269;SDS011;39159;45.634;9.420;2023-07-30T04:36:00;13.05;;;6.18;;
53269;SDS011;39159;45.634;9.420;2023-07-30T04:38:26;8.30;;;6.38;;
53269;SDS011;39159;45.634;9.420;2023-07-30T04:40:51;8.40;;;6.05;;
53269;SDS011;39159;45.634;9.420;2023-07-30T04:43:16;10.38;;;6.10;;
53269;SDS011;39159;45.634;9.420;2023-07-30T04:45:42;10.05;;;6.88;;
53269;SDS011;39159;45.634;9.420;2023-07-30T04:48:08;8.80;;;6.45;;
53269;SDS011;39159;45.634;9.420;2023-07-30T04:50:33;12.15;;;6.25;;
53269;SDS011;39159;45.634;9.420;2023-07-30T04:52:59;8.48;;;6.68;;
53269;SDS011;39159;45.634;9.420;2023-07-30T04:55:24;7.80;;;6.18;;
53269;SDS011;39159;45.634;9.420;2023-07-30T04:57:50;8.15;;;6.60;;
53269;SDS011;39159;45.634;9.420;2023-07-30T05:00:15;8.60;;;6.35;;
53269;SDS011;39159;45.634;9.420;2023-07-30T05:02:41;8.65;;;6.10;;
53269;SDS011;39159;45.634;9.420;2023-07-30T05:05:07;9.55;;;6.70;;
53269;SDS011;39159;45.634;9.420;2023-07-30T05:07:33;8.57;;;6.00;;
53269;SDS011;39159;45.634;9.420;2023-07-30T05:09:58;7.55;;;5.50;;
53269;SDS011;39159;45.634;9.420;2023-07-30T05:12:23;8.50;;;6.60;;
53269;SDS011;39159;45.634;9.420;2023-07-30T05:14:49;7.53;;;6.07;;
53269;SDS011;39159;45.634;9.420;2023-07-30T05:17:14;7.50;;;5.43;;
53269;SDS011;39159;45.634;9.420;2023-07-30T05:19:40;10.43;;;6.55;;
53269;SDS011;39159;45.634;9.420;2023-07-30T05:22:05;9.75;;;5.82;;
53269;SDS011;39159;45.634;9.420;2023-07-30T05:24:32;6.72;;;5.35;;
53269;SDS011;39159;45.634;9.420;2023-07-30T05:26:58;6.70;;;5.05;;
53269;SDS011;39159;45.634;9.420;2023-07-30T05:29:24;6.15;;;4.75;;
53269;SDS011;39159;45.634;9.420;2023-07-30T05:31:49;8.45;;;6.25;;
53269;SDS011;39159;45.634;9.420;2023-07-30T05:34:15;10.23;;;6.82;;
53269;SDS011;39159;45.634;9.420;2023-07-30T05:36:40;8.13;;;6.43;;
53269;SDS011;39159;45.634;9.420;2023-07-30T05:39:05;7.60;;;6.43;;
53269;SDS011;39159;45.634;9.420;2023-07-30T05:41:31;7.43;;;6.40;;
53269;SDS011;39159;45.634;9.420;2023-07-30T05:43:57;7.45;;;6.75;;
53269;SDS011;39159;45.634;9.420;2023-07-30T05:46:22;8.35;;;6.35;;
53269;SDS011;39159;45.634;9.420;2023-07-30T05:48:47;6.68;;;5.13;;
53269;SDS011;39159;45.634;9.420;2023-07-30T05:51:13;11.32;;;6.22;;
53269;SDS011;39159;45.634;9.420;2023-07-30T05:53:38;7.88;;;5.72;;
53269;SDS011;39159;45.634;9.420;2023-07-30T05:56:04;7.20;;;5.75;;
53269;SDS011;39159;45.634;9.420;2023-07-30T05:58:29;7.22;;;5.40;;
53269;SDS011;39159;45.634;9.420;2023-07-30T06:00:54;6.57;;;4.93;;
53269;SDS011;39159;45.634;9.420;2023-07-30T06:03:21;7.18;;;5.60;;
53269;SDS011;39159;45.634;9.420;2023-07-30T06:05:46;9.30;;;5.90;;
53269;SDS011;39159;45.634;9.420;2023-07-30T06:08:12;5.30;;;4.78;;
53269;SDS011;39159;45.634;9.420;2023-07-30T06:10:37;10.32;;;6.18;;
53269;SDS011;39159;45.634;9.420;2023-07-30T06:13:04;12.77;;;5.68;;
53269;SDS011;39159;45.634;9.420;2023-07-30T06:15:30;6.22;;;5.63;;
53269;SDS011;39159;45.634;9.420;2023-07-30T06:17:56;7.35;;;4.85;;
53269;SDS011;39159;45.634;9.420;2023-07-30T06:20:22;5.47;;;4.20;;
53269;SDS011;39159;45.634;9.420;2023-07-30T06:22:47;8.60;;;4.20;;
53269;SDS011;39159;45.634;9.420;2023-07-30T06:25:13;6.03;;;4.40;;
53269;SDS011;39159;45.634;9.420;2023-07-30T06:27:38;5.95;;;4.40;;
53269;SDS011;39159;45.634;9.420;2023-07-30T06:30:04;7.55;;;4.88;;
53269;SDS011;39159;45.634;9.420;2023-07-30T06:32:30;5.90;;;5.15;;
53269;SDS011;39159;45.634;9.420;2023-07-30T06:34:55;7.60;;;4.75;;
53269;SDS011;39159;45.634;9.420;2023-07-30T06:37:21;6.60;;;4.57;;
53269;SDS011;39159;45.634;9.420;2023-07-30T06:39:46;5.30;;;4.60;;
53269;SDS011;39159;45.634;9.420;2023-07-30T06:42:12;8.98;;;5.05;;
53269;SDS011;39159;45.634;9.420;2023-07-30T06:44:37;7.43;;;3.90;;
53269;SDS011;39159;45.634;9.420;2023-07-30T06:47:02;6.88;;;4.00;;
53269;SDS011;39159;45.634;9.420;2023-07-30T06:49:28;4.32;;;3.30;;
53269;SDS011;39159;45.634;9.420;2023-07-30T06:51:54;5.05;;;3.50;;
53269;SDS011;39159;45.634;9.420;2023-07-30T06:54:20;4.20;;;2.83;;
53269;SDS011;39159;45.634;9.420;2023-07-30T06:56:45;4.72;;;3.15;;
53269;SDS011;39159;45.634;9.420;2023-07-30T06:59:11;4.18;;;2.95;;
53269;SDS011;39159;45.634;9.420;2023-07-30T07:01:36;6.47;;;3.38;;
53269;SDS011;39159;45.634;9.420;2023-07-30T07:04:01;5.72;;;3.58;;
53269;SDS011;39159;45.634;9.420;2023-07-30T07:06:27;4.50;;;3.10;;
53269;SDS011;39159;45.634;9.420;2023-07-30T07:08:52;5.25;;;3.30;;
53269;SDS011;39159;45.634;9.420;2023-07-30T07:11:18;5.45;;;3.45;;
53269;SDS011;39159;45.634;9.420;2023-07-30T07:13:44;4.70;;;3.20;;
53269;SDS011;39159;45.634;9.420;2023-07-30T07:16:09;3.50;;;3.20;;
53269;SDS011;39159;45.634;9.420;2023-07-30T07:18:34;4.55;;;3.13;;
53269;SDS011;39159;45.634;9.420;2023-07-30T07:21:00;3.13;;;2.60;;
53269;SDS011;39159;45.634;9.420;2023-07-30T07:23:25;6.00;;;3.60;;
53269;SDS011;39159;45.634;9.420;2023-07-30T07:25:51;5.97;;;3.60;;
53269;SDS011;39159;45.634;9.420;2023-07-30T07:28:17;6.45;;;3.67;;
53269;SDS011;39159;45.634;9.420;2023-07-30T07:30:43;3.50;;;2.97;;
53269;SDS011;39159;45.634;9.420;2023-07-30T07:33:09;5.80;;;4.30;;
53269;SDS011;39159;45.634;9.420;2023-07-30T07:35:38;4.53;;;3.40;;
53269;SDS011;39159;45.634;9.420;2023-07-30T07:38:04;4.00;;;3.55;;
53269;SDS011;39159;45.634;9.420;2023-07-30T07:40:29;3.70;;;3.20;;
53269;SDS011;39159;45.634;9.420;2023-07-30T07:42:55;5.13;;;3.72;;
53269;SDS011;39159;45.634;9.420;2023-07-30T07:45:21;6.15;;;3.50;;
53269;SDS011;39159;45.634;9.420;2023-07-30T07:47:46;6.85;;;4.20;;
53269;SDS011;39159;45.634;9.420;2023-07-30T07:50:11;5.00;;;3.90;;
53269;SDS011;39159;45.634;9.420;2023-07-30T07:52:37;5.97;;;3.40;;
53269;SDS011;39159;45.634;9.420;2023-07-30T07:55:03;4.07;;;3.13;;
53269;SDS011;39159;45.634;9.420;2023-07-30T07:57:29;5.65;;;3.40;;
53269;SDS011;39159;45.634;9.420;2023-07-30T07:59:56;4.93;;;2.60;;
53269;SDS011;39159;45.634;9.420;2023-07-30T08:02:22;3.25;;;2.95;;
53269;SDS011;39159;45.634;9.420;2023-07-30T08:04:47;3.40;;;3.08;;
53269;SDS011;39159;45.634;9.420;2023-07-30T08:07:13;4.30;;;3.15;;
53269;SDS011;39159;45.634;9.420;2023-07-30T08:09:38;4.55;;;3.10;;
53269;SDS011;39159;45.634;9.420;2023-07-30T08:12:04;4.03;;;2.65;;
53269;SDS011;39159;45.634;9.420;2023-07-30T08:14:30;2.97;;;2.55;;
53269;SDS011;39159;45.634;9.420;2023-07-30T08:16:56;3.40;;;2.53;;
53269;SDS011;39159;45.634;9.420;2023-07-30T08:19:21;3.38;;;2.45;;
53269;SDS011;39159;45.634;9.420;2023-07-30T08:21:47;5.13;;;3.08;;
53269;SDS011;39159;45.634;9.420;2023-07-30T08:24:12;5.63;;;2.63;;
53269;SDS011;39159;45.634;9.420;2023-07-30T08:26:38;3.15;;;2.78;;
53269;SDS011;39159;45.634;9.420;2023-07-30T08:29:03;4.28;;;3.28;;
53269;SDS011;39159;45.634;9.420;2023-07-30T08:31:30;5.00;;;3.58;;
53269;SDS011;39159;45.634;9.420;2023-07-30T08:33:56;4.97;;;3.05;;
53269;SDS011;39159;45.634;9.420;2023-07-30T08:36:21;4.85;;;3.80;;
53269;SDS011;39159;45.634;9.420;2023-07-30T08:38:47;5.47;;;3.00;;
53269;SDS011;39159;45.634;9.420;2023-07-30T08:41:12;3.92;;;2.95;;
53269;SDS011;39159;45.634;9.420;2023-07-30T08:43:38;4.18;;;3.00;;
53269;SDS011;39159;45.634;9.420;2023-07-30T08:46:03;4.30;;;3.30;;
53269;SDS011;39159;45.634;9.420;2023-07-30T08:48:29;5.25;;;3.60;;
53269;SDS011;39159;45.634;9.420;2023-07-30T08:50:56;4.00;;;3.25;;
53269;SDS011;39159;45.634;9.420;2023-07-30T08:53:24;5.00;;;3.47;;
53269;SDS011;39159;45.634;9.420;2023-07-30T08:55:50;3.60;;;3.03;;
53269;SDS011;39159;45.634;9.420;2023-07-30T08:58:16;5.28;;;3.90;;
53269;SDS011;39159;45.634;9.420;2023-07-30T09:00:42;6.32;;;3.80;;
53269;SDS011;39159;45.634;9.420;2023-07-30T09:03:08;4.20;;;3.55;;
53269;SDS011;39159;45.634;9.420;2023-07-30T09:05:39;5.22;;;3.33;;
53269;SDS011;39159;45.634;9.420;2023-07-30T09:08:04;6.35;;;3.80;;
53269;SDS011;39159;45.634;9.420;2023-07-30T09:10:31;5.10;;;3.75;;
53269;SDS011;39159;45.634;9.420;2023-07-30T09:12:57;4.40;;;3.83;;
53269;SDS011;39159;45.634;9.420;2023-07-30T09:15:29;4.68;;;3.63;;
53269;SDS011;39159;45.634;9.420;2023-07-30T09:17:58;4.63;;;3.45;;
53269;SDS011;39159;45.634;9.420;2023-07-30T09:20:25;6.10;;;4.20;;
53269;SDS011;39159;45.634;9.420;2023-07-30T09:22:51;5.90;;;3.75;;
53269;SDS011;39159;45.634;9.420;2023-07-30T09:25:19;6.32;;;3.70;;
53269;SDS011;39159;45.634;9.420;2023-07-30T09:27:49;6.07;;;4.15;;
53269;SDS011;39159;45.634;9.420;2023-07-30T09:30:21;6.13;;;3.77;;
53269;SDS011;39159;45.634;9.420;2023-07-30T09:32:50;4.63;;;3.80;;
53269;SDS011;39159;45.634;9.420;2023-07-30T09:35:18;5.72;;;4.10;;
53269;SDS011;39159;45.634;9.420;2023-07-30T09:37:43;5.95;;;4.60;;
53269;SDS011;39159;45.634;9.420;2023-07-30T09:40:10;5.07;;;3.60;;
53269;SDS011;39159;45.634;9.420;2023-07-30T09:42:38;4.97;;;3.80;;
53269;SDS011;39159;45.634;9.420;2023-07-30T09:45:07;6.22;;;4.93;;
53269;SDS011;39159;45.634;9.420;2023-07-30T09:47:45;6.03;;;4.32;;
53269;SDS011;39159;45.634;9.420;2023-07-30T09:50:14;6.05;;;4.85;;
53269;SDS011;39159;45.634;9.420;2023-07-30T09:52:40;5.55;;;4.50;;
53269;SDS011;39159;45.634;9.420;2023-07-30T09:55:07;4.43;;;4.03;;
53269;SDS011;39159;45.634;9.420;2023-07-30T09:57:33;4.70;;;3.97;;
53269;SDS011;39159;45.634;9.420;2023-07-30T09:59:58;4.95;;;4.35;;
53269;SDS011;39159;45.634;9.420;2023-07-30T10:02:24;6.13;;;4.50;;
53269;SDS011;39159;45.634;9.420;2023-07-30T10:04:53;5.15;;;4.13;;
53269;SDS011;39159;45.634;9.420;2023-07-30T10:07:22;4.38;;;3.50;;
53269;SDS011;39159;45.634;9.420;2023-07-30T10:09:49;5.28;;;4.00;;
53269;SDS011;39159;45.634;9.420;2023-07-30T10:12:20;4.93;;;4.30;;
53269;SDS011;39159;45.634;9.420;2023-07-30T10:14:48;5.80;;;4.82;;
53269;SDS011;39159;45.634;9.420;2023-07-30T10:17:16;7.57;;;4.55;;
53269;SDS011;39159;45.634;9.420;2023-07-30T10:19:43;6.68;;;4.78;;
53269;SDS011;39159;45.634;9.420;2023-07-30T10:24:38;7.13;;;4.80;;
53269;SDS011;39159;45.634;9.420;2023-07-30T10:27:07;8.20;;;5.60;;
53269;SDS011;39159;45.634;9.420;2023-07-30T10:29:35;6.28;;;4.93;;
53269;SDS011;39159;45.634;9.420;2023-07-30T10:32:01;6.93;;;5.93;;
53269;SDS011;39159;45.634;9.420;2023-07-30T10:34:49;7.05;;;5.80;;
53269;SDS011;39159;45.634;9.420;2023-07-30T10:37:22;10.18;;;5.38;;
53269;SDS011;39159;45.634;9.420;2023-07-30T10:39:50;5.85;;;5.18;;
53269;SDS011;39159;45.634;9.420;2023-07-30T10:42:16;6.28;;;5.22;;
53269;SDS011;39159;45.634;9.420;2023-07-30T10:44:43;5.82;;;4.95;;
53269;SDS011;39159;45.634;9.420;2023-07-30T10:47:09;5.20;;;4.18;;
53269;SDS011;39159;45.634;9.420;2023-07-30T10:49:38;6.40;;;4.47;;
53269;SDS011;39159;45.634;9.420;2023-07-30T10:52:15;5.07;;;3.95;;
53269;SDS011;39159;45.634;9.420;2023-07-30T10:54:41;7.35;;;4.38;;
53269;SDS011;39159;45.634;9.420;2023-07-30T10:57:06;4.55;;;3.88;;
53269;SDS011;39159;45.634;9.420;2023-07-30T10:59:33;6.13;;;3.85;;
53269;SDS011;39159;45.634;9.420;2023-07-30T11:02:01;5.03;;;4.07;;
53269;SDS011;39159;45.634;9.420;2023-07-30T11:04:26;4.22;;;3.50;;
53269;SDS011;39159;45.634;9.420;2023-07-30T11:06:52;5.43;;;3.85;;
53269;SDS011;39159;45.634;9.420;2023-07-30T11:09:21;4.03;;;2.95;;
53269;SDS011;39159;45.634;9.420;2023-07-30T11:11:51;5.50;;;2.72;;
53269;SDS011;39159;45.634;9.420;2023-07-30T11:14:20;3.65;;;3.25;;
53269;SDS011;39159;45.634;9.420;2023-07-30T11:16:51;7.22;;;4.50;;
53269;SDS011;39159;45.634;9.420;2023-07-30T11:19:18;4.22;;;3.10;;
53269;SDS011;39159;45.634;9.420;2023-07-30T11:21:50;5.82;;;4.30;;
53269;SDS011;39159;45.634;9.420;2023-07-30T11:24:17;4.03;;;3.20;;
53269;SDS011;39159;45.634;9.420;2023-07-30T11:26:43;6.43;;;3.50;;
53269;SDS011;39159;45.634;9.420;2023-07-30T11:29:15;5.18;;;3.40;;
53269;SDS011;39159;45.634;9.420;2023-07-30T11:31:42;6.97;;;4.18;;
53269;SDS011;39159;45.634;9.420;2023-07-30T11:34:08;4.65;;;3.58;;
53269;SDS011;39159;45.634;9.420;2023-07-30T11:36:34;5.40;;;3.60;;
53269;SDS011;39159;45.634;9.420;2023-07-30T11:39:00;5.75;;;3.50;;
53269;SDS011;39159;45.634;9.420;2023-07-30T11:41:26;5.50;;;3.35;;
53269;SDS011;39159;45.634;9.420;2023-07-30T11:43:53;4.97;;;2.95;;
53269;SDS011;39159;45.634;9.420;2023-07-30T11:46:19;5.63;;;3.10;;
53269;SDS011;39159;45.634;9.420;2023-07-30T11:48:49;5.07;;;3.53;;
53269;SDS011;39159;45.634;9.420;2023-07-30T11:56:26;3.83;;;3.08;;
53269;SDS011;39159;45.634;9.420;2023-07-30T11:58:56;6.05;;;2.90;;
53269;SDS011;39159;45.634;9.420;2023-07-30T12:01:24;4.07;;;3.20;;
53269;SDS011;39159;45.634;9.420;2023-07-30T12:03:53;4.63;;;2.80;;
53269;SDS011;39159;45.634;9.420;2023-07-30T12:06:22;4.55;;;2.88;;
53269;SDS011;39159;45.634;9.420;2023-07-30T12:08:49;6.32;;;4.03;;
53269;SDS011;39159;45.634;9.420;2023-07-30T12:11:14;3.95;;;2.75;;
53269;SDS011;39159;45.634;9.420;2023-07-30T12:13:43;3.63;;;2.63;;
53269;SDS011;39159;45.634;9.420;2023-07-30T12:16:15;5.97;;;2.60;;
53269;SDS011;39159;45.634;9.420;2023-07-30T12:18:41;4.75;;;2.95;;
53269;SDS011;39159;45.634;9.420;2023-07-30T12:21:06;4.18;;;2.80;;
53269;SDS011;39159;45.634;9.420;2023-07-30T12:23:33;3.88;;;2.65;;
53269;SDS011;39159;45.634;9.420;2023-07-30T12:25:59;6.43;;;4.28;;
53269;SDS011;39159;45.634;9.420;2023-07-30T12:28:24;3.20;;;2.65;;
53269;SDS011;39159;45.634;9.420;2023-07-30T12:30:50;3.95;;;2.47;;
53269;SDS011;39159;45.634;9.420;2023-07-30T12:33:15;4.85;;;3.00;;
53269;SDS011;39159;45.634;9.420;2023-07-30T12:35:41;4.28;;;2.75;;
53269;SDS011;39159;45.634;9.420;2023-07-30T12:38:07;3.80;;;3.10;;
53269;SDS011;39159;45.634;9.420;2023-07-30T12:40:32;6.22;;;3.42;;
53269;SDS011;39159;45.634;9.420;2023-07-30T12:43:02;2.92;;;2.40;;
53269;SDS011;39159;45.634;9.420;2023-07-30T12:45:28;3.35;;;2.90;;
53269;SDS011;39159;45.634;9.420;2023-07-30T12:47:54;4.15;;;2.53;;
53269;SDS011;39159;45.634;9.420;2023-07-30T12:50:19;4.30;;;3.15;;
53269;SDS011;39159;45.634;9.420;2023-07-30T12:52:45;3.10;;;2.65;;
53269;SDS011;39159;45.634;9.420;2023-07-30T12:55:10;4.88;;;3.13;;
53269;SDS011;39159;45.634;9.420;2023-07-30T12:57:36;3.70;;;2.80;;
53269;SDS011;39159;45.634;9.420;2023-07-30T13:00:01;3.63;;;2.47;;
53269;SDS011;39159;45.634;9.420;2023-07-30T13:02:29;4.75;;;3.03;;
53269;SDS011;39159;45.634;9.420;2023-07-30T13:04:58;6.05;;;3.10;;
53269;SDS011;39159;45.634;9.420;2023-07-30T13:07:24;2.97;;;2.67;;
53269;SDS011;39159;45.634;9.420;2023-07-30T13:09:58;4.53;;;3.10;;
53269;SDS011;39159;45.634;9.420;2023-07-30T13:12:27;4.38;;;3.20;;
53269;SDS011;39159;45.634;9.420;2023-07-30T13:14:53;4.20;;;3.20;;
53269;SDS011;39159;45.634;9.420;2023-07-30T13:17:18;4.68;;;3.00;;
53269;SDS011;39159;45.634;9.420;2023-07-30T13:19:44;3.00;;;2.70;;
53269;SDS011;39159;45.634;9.420;2023-07-30T13:22:09;4.80;;;3.45;;
53269;SDS011;39159;45.634;9.420;2023-07-30T13:24:34;3.78;;;2.92;;
53269;SDS011;39159;45.634;9.420;2023-07-30T13:27:01;3.65;;;3.13;;
53269;SDS011;39159;45.634;9.420;2023-07-30T13:29:27;4.20;;;3.08;;
53269;SDS011;39159;45.634;9.420;2023-07-30T13:31:52;5.18;;;2.95;;
53269;SDS011;39159;45.634;9.420;2023-07-30T13:34:17;3.63;;;2.88;;
53269;SDS011;39159;45.634;9.420;2023-07-30T13:36:43;6.47;;;3.70;;
53269;SDS011;39159;45.634;9.420;2023-07-30T13:39:08;4.93;;;2.78;;
53269;SDS011;39159;45.634;9.420;2023-07-30T13:41:34;3.42;;;2.75;;
53269;SDS011;39159;45.634;9.420;2023-07-30T13:44:00;4.80;;;3.20;;
53269;SDS011;39159;45.634;9.420;2023-07-30T13:46:25;3.13;;;2.53;;
53269;SDS011;39159;45.634;9.420;2023-07-30T13:48:51;3.72;;;3.10;;
53269;SDS011;39159;45.634;9.420;2023-07-30T13:51:16;3.05;;;2.78;;
53269;SDS011;39159;45.634;9.420;2023-07-30T13:53:41;3.75;;;2.80;;
53269;SDS011;39159;45.634;9.420;2023-07-30T13:56:07;5.00;;;2.65;;
53269;SDS011;39159;45.634;9.420;2023-07-30T13:58:32;3.15;;;2.60;;
53269;SDS011;39159;45.634;9.420;2023-07-30T14:00:58;2.88;;;2.58;;
53269;SDS011;39159;45.634;9.420;2023-07-30T14:03:23;2.97;;;2.53;;
53269;SDS011;39159;45.634;9.420;2023-07-30T14:05:49;2.90;;;2.60;;
53269;SDS011;39159;45.634;9.420;2023-07-30T14:08:14;4.63;;;2.13;;
53269;SDS011;39159;45.634;9.420;2023-07-30T14:10:40;5.28;;;2.47;;
53269;SDS011;39159;45.634;9.420;2023-07-30T14:13:05;3.95;;;2.47;;
53269;SDS011;39159;45.634;9.420;2023-07-30T14:15:31;4.75;;;3.10;;
53269;SDS011;39159;45.634;9.420;2023-07-30T14:17:57;5.30;;;2.40;;
53269;SDS011;39159;45.634;9.420;2023-07-30T14:20:24;4.03;;;2.60;;
53269;SDS011;39159;45.634;9.420;2023-07-30T14:22:49;4.22;;;2.53;;
53269;SDS011;39159;45.634;9.420;2023-07-30T14:25:16;3.33;;;2.35;;
53269;SDS011;39159;45.634;9.420;2023-07-30T14:27:42;2.45;;;2.20;;
53269;SDS011;39159;45.634;9.420;2023-07-30T14:30:07;2.67;;;2.38;;
53269;SDS011;39159;45.634;9.420;2023-07-30T14:32:33;3.80;;;2.55;;
53269;SDS011;39159;45.634;9.420;2023-07-30T14:34:59;4.32;;;2.65;;
53269;SDS011;39159;45.634;9.420;2023-07-30T14:37:24;3.45;;;2.70;;
53269;SDS011;39159;45.634;9.420;2023-07-30T14:39:50;3.92;;;2.60;;
53269;SDS011;39159;45.634;9.420;2023-07-30T14:42:15;2.67;;;2.17;;
53269;SDS011;39159;45.634;9.420;2023-07-30T14:44:40;3.13;;;2.47;;
53269;SDS011;39159;45.634;9.420;2023-07-30T14:47:06;3.47;;;2.17;;